Time;durP1;ratioP1;P1;durP2;ratioP2;P2;SDS_P1;SDS_P2;PMS_P1;PMS_P2;Temp;Humidity;BMP_temperature;BMP_pressure;BME280_temperature;BME280_humidity;BME280_pressure;Samples;Min_cycle;Max_cycle;Signal;HPM_P1;HPM_P2
2022/04/17 00:00:00;;;;;;;;;;;9.20;59.60;;;;;;2092622;28;19921;-91
2022/04/17 00:01:19;;;;;;;;;;;9.10;59.60;;;;;;2089779;28;19920;-92
2022/04/17 00:02:39;;;;;;;;;;;9.10;59.70;;;;;;2091675;28;19912;-92
2022/04/17 00:03:58;;;;;;;;;;;9.10;59.70;;;;;;2090454;28;19913;-91
2022/04/17 00:05:18;;;;;;;;;;;9.10;59.70;;;;;;2093241;28;19920;-92
2022/04/17 00:06:37;;;;;;;;;;;9.10;59.80;;;;;;2096624;28;19928;-92
2022/04/17 00:07:56;;;;;;;;;;;9.10;59.80;;;;;;2090718;28;19916;-91
2022/04/17 00:09:15;;;;;;;;;;;9.10;59.80;;;;;;2089010;28;19964;-92
2022/04/17 00:10:35;;;;;;;;;;;9.10;59.80;;;;;;2100416;28;19916;-92
2022/04/17 00:11:54;;;;;;;;;;;9.00;59.80;;;;;;2092718;28;20051;-92
2022/04/17 00:13:14;;;;;;;;;;;9.00;59.80;;;;;;2086181;28;19917;-92
2022/04/17 00:14:33;;;;;;;;;;;9.00;59.80;;;;;;2096510;28;19947;-92
2022/04/17 00:15:52;;;;;;;;;;;9.00;59.80;;;;;;2098997;28;19921;-92
2022/04/17 00:17:13;;;;;;;;;;;9.00;59.80;;;;;;2093873;28;19917;-92
2022/04/17 00:18:32;;;;;;;;;;;9.00;59.90;;;;;;2093077;28;19925;-92
2022/04/17 00:19:51;;;;;;;;;;;9.00;59.90;;;;;;2092684;28;19916;-92
2022/04/17 00:21:10;;;;;;;;;;;9.00;60.00;;;;;;2094136;28;19917;-92
2022/04/17 00:22:29;;;;;;;;;;;8.90;59.90;;;;;;2092089;28;20378;-92
2022/04/17 00:23:49;;;;;;;;;;;8.90;59.90;;;;;;2091944;28;19916;-92
2022/04/17 00:25:08;;;;;;;;;;;8.90;59.90;;;;;;2091351;28;19917;-92
2022/04/17 00:26:28;;;;;;;;;;;8.90;60.00;;;;;;2101536;28;19912;-92
2022/04/17 00:27:47;;;;;;;;;;;8.90;60.00;;;;;;2093154;28;19921;-91
2022/04/17 00:29:06;;;;;;;;;;;8.90;60.00;;;;;;2088422;28;19924;-92
2022/04/17 00:30:25;;;;;;;;;;;8.90;60.00;;;;;;2092707;28;20432;-91
2022/04/17 00:31:45;;;;;;;;;;;8.90;60.10;;;;;;2094008;28;19916;-92
2022/04/17 00:33:04;;;;;;;;;;;8.90;60.10;;;;;;2102369;28;20382;-91
2022/04/17 00:34:24;;;;;;;;;;;8.90;60.10;;;;;;2086905;28;19917;-92
2022/04/17 00:35:45;;;;;;;;;;;8.80;60.10;;;;;;2090434;28;19928;-92
2022/04/17 00:37:04;;;;;;;;;;;8.80;60.20;;;;;;2091254;28;19916;-91
2022/04/17 00:38:23;;;;;;;;;;;8.80;60.20;;;;;;2097181;28;19912;-91
2022/04/17 00:39:43;;;;;;;;;;;8.80;60.30;;;;;;2095815;28;19916;-92
2022/04/17 00:41:02;;;;;;;;;;;8.80;60.30;;;;;;2086970;28;19913;-92
2022/04/17 00:42:21;;;;;;;;;;;8.80;60.30;;;;;;2092063;28;19917;-92
2022/04/17 00:43:44;;;;;;;;;;;8.70;60.40;;;;;;2081023;28;19953;-93
2022/04/17 00:45:03;;;;;;;;;;;8.80;60.50;;;;;;2093302;28;19912;-92
2022/04/17 00:46:22;;;;;;;;;;;8.70;60.40;;;;;;2087663;28;19917;-92
2022/04/17 00:47:42;;;;;;;;;;;8.70;60.30;;;;;;2089216;28;20388;-92
2022/04/17 00:49:01;;;;;;;;;;;8.70;60.40;;;;;;2085394;28;19933;-92
2022/04/17 00:50:20;;;;;;;;;;;8.70;60.40;;;;;;2081890;28;19917;-91
2022/04/17 00:51:40;;;;;;;;;;;8.70;60.40;;;;;;2089265;28;19947;-92
2022/04/17 00:52:59;;;;;;;;;;;8.70;60.40;;;;;;2093702;28;20298;-92
2022/04/17 00:54:19;;;;;;;;;;;8.70;60.40;;;;;;2085885;28;20383;-92
2022/04/17 00:55:40;;;;;;;;;;;8.70;60.40;;;;;;2090822;28;19916;-92
2022/04/17 00:56:59;;;;;;;;;;;8.70;60.50;;;;;;2092016;28;19912;-92
2022/04/17 00:58:19;;;;;;;;;;;8.60;60.50;;;;;;2097941;28;19916;-91
2022/04/17 00:59:42;;;;;;;;;;;8.70;60.60;;;;;;2080734;28;19961;-91
2022/04/17 01:01:03;;;;;;;;;;;8.60;60.60;;;;;;2091054;28;20360;-92
2022/04/17 01:02:22;;;;;;;;;;;8.60;60.60;;;;;;2097394;28;19917;-91
2022/04/17 01:03:42;;;;;;;;;;;8.60;60.60;;;;;;2101037;28;19912;-92
2022/04/17 01:05:01;;;;;;;;;;;8.60;60.70;;;;;;2113658;28;19956;-82
2022/04/17 01:06:20;;;;;;;;;;;8.50;60.70;;;;;;2099956;28;19901;-89
2022/04/17 01:07:40;;;;;;;;;;;8.50;60.70;;;;;;2092790;28;19947;-91
2022/04/17 01:09:00;;;;;;;;;;;8.50;60.80;;;;;;2099518;28;19932;-90
2022/04/17 01:10:19;;;;;;;;;;;8.50;60.80;;;;;;2106237;28;19901;-87
2022/04/17 01:11:39;;;;;;;;;;;8.50;60.80;;;;;;2098631;28;19916;-91
2022/04/17 01:12:59;;;;;;;;;;;8.50;60.90;;;;;;2095161;28;19916;-91
2022/04/17 01:14:20;;;;;;;;;;;8.50;60.90;;;;;;2094931;28;19921;-92
2022/04/17 01:15:40;;;;;;;;;;;8.40;60.90;;;;;;2099961;28;19948;-93
2022/04/17 01:17:02;;;;;;;;;;;8.50;61.00;;;;;;2096411;28;20004;-92
2022/04/17 01:18:21;;;;;;;;;;;8.40;61.00;;;;;;2108799;28;19952;-89
2022/04/17 01:19:40;;;;;;;;;;;8.40;61.10;;;;;;2103516;28;19904;-91
2022/04/17 01:20:59;;;;;;;;;;;8.40;61.10;;;;;;2091816;28;19916;-92
2022/04/17 01:22:19;;;;;;;;;;;8.40;61.20;;;;;;2094360;28;20379;-92
2022/04/17 01:27:03;;;;;;;;;;;8.40;61.30;;;;;;2094480;28;19917;-92
2022/04/17 01:28:22;;;;;;;;;;;8.30;61.30;;;;;;2091666;28;19912;-92
2022/04/17 01:29:42;;;;;;;;;;;8.30;61.30;;;;;;2090479;28;20391;-91
2022/04/17 01:31:02;;;;;;;;;;;8.30;61.40;;;;;;2093549;28;19913;-92
2022/04/17 01:32:22;;;;;;;;;;;8.30;61.40;;;;;;2097255;28;19956;-91
2022/04/17 01:33:41;;;;;;;;;;;8.30;61.50;;;;;;2098501;28;19916;-92
2022/04/17 01:35:00;;;;;;;;;;;8.20;61.50;;;;;;2099935;28;19972;-92
2022/04/17 01:36:19;;;;;;;;;;;8.20;61.60;;;;;;2083829;28;19917;-92
2022/04/17 01:37:39;;;;;;;;;;;8.20;61.70;;;;;;2085042;28;20386;-92
2022/04/17 01:38:58;;;;;;;;;;;8.20;61.70;;;;;;2079565;28;20474;-91
2022/04/17 01:40:17;;;;;;;;;;;8.20;61.80;;;;;;2087293;28;19956;-92
2022/04/17 01:41:37;;;;;;;;;;;8.20;61.90;;;;;;2090231;28;19961;-91
2022/04/17 01:42:56;;;;;;;;;;;8.20;61.90;;;;;;2097832;28;19916;-91
2022/04/17 01:44:18;;;;;;;;;;;8.20;62.00;;;;;;2096152;28;19917;-91
2022/04/17 01:45:37;;;;;;;;;;;8.10;61.90;;;;;;2091161;28;19917;-92
2022/04/17 01:46:57;;;;;;;;;;;8.10;61.90;;;;;;2085076;28;19925;-92
2022/04/17 01:48:18;;;;;;;;;;;8.10;62.00;;;;;;2085375;28;19956;-91
2022/04/17 01:49:38;;;;;;;;;;;8.10;62.00;;;;;;2081068;28;20321;-92
2022/04/17 01:50:57;;;;;;;;;;;8.10;62.00;;;;;;2090004;28;19909;-92
2022/04/17 01:52:16;;;;;;;;;;;8.10;62.10;;;;;;2089683;28;19921;-92
2022/04/17 01:53:35;;;;;;;;;;;8.10;62.20;;;;;;2094636;28;20003;-92
2022/04/17 01:54:54;;;;;;;;;;;8.10;62.20;;;;;;2092014;28;19917;-92
2022/04/17 01:56:13;;;;;;;;;;;8.00;62.20;;;;;;2088519;28;19916;-91
2022/04/17 01:57:33;;;;;;;;;;;8.10;62.30;;;;;;2089079;28;19917;-91
2022/04/17 01:58:52;;;;;;;;;;;8.00;62.30;;;;;;2090146;28;19913;-92
2022/04/17 02:00:11;;;;;;;;;;;8.00;62.30;;;;;;2095292;28;19948;-91
2022/04/17 02:01:34;;;;;;;;;;;8.00;62.40;;;;;;2090488;28;19917;-91
2022/04/17 02:02:53;;;;;;;;;;;8.00;62.40;;;;;;2097502;28;20298;-92
2022/04/17 02:04:13;;;;;;;;;;;8.00;62.40;;;;;;2099482;28;19936;-90
2022/04/17 02:05:32;;;;;;;;;;;7.90;62.40;;;;;;2098223;28;19917;-92
2022/04/17 02:06:51;;;;;;;;;;;7.90;62.50;;;;;;2084568;28;19916;-92
2022/04/17 02:08:13;;;;;;;;;;;7.90;62.50;;;;;;2092213;28;19917;-91
2022/04/17 02:09:32;;;;;;;;;;;7.90;62.60;;;;;;2088581;28;19928;-92
2022/04/17 02:10:51;;;;;;;;;;;7.90;62.70;;;;;;2088791;28;19917;-91
2022/04/17 02:12:12;;;;;;;;;;;7.80;62.70;;;;;;2094632;28;20335;-91
2022/04/17 02:13:34;;;;;;;;;;;7.80;62.70;;;;;;2084856;28;19916;-92
2022/04/17 02:14:53;;;;;;;;;;;7.80;62.70;;;;;;2093663;28;20389;-92
2022/04/17 02:16:13;;;;;;;;;;;7.80;62.70;;;;;;2091949;28;20794;-91
2022/04/17 02:17:34;;;;;;;;;;;7.80;62.80;;;;;;2085344;28;19916;-92
2022/04/17 02:18:54;;;;;;;;;;;7.80;62.80;;;;;;2092258;28;19916;-92
2022/04/17 02:20:13;;;;;;;;;;;7.80;62.80;;;;;;2091723;28;19912;-91
2022/04/17 02:21:32;;;;;;;;;;;7.80;62.80;;;;;;2096043;28;19917;-91
2022/04/17 02:22:52;;;;;;;;;;;7.80;62.80;;;;;;2092253;28;19968;-91
2022/04/17 02:24:10;;;;;;;;;;;7.80;62.90;;;;;;2086900;28;20316;-91
2022/04/17 02:25:30;;;;;;;;;;;7.80;62.90;;;;;;2079608;28;19917;-91
2022/04/17 02:26:49;;;;;;;;;;;7.70;62.80;;;;;;2080267;28;20406;-91
2022/04/17 02:28:08;;;;;;;;;;;7.70;62.80;;;;;;2090611;28;19913;-91
2022/04/17 02:29:29;;;;;;;;;;;7.80;62.90;;;;;;2096220;28;19921;-92
2022/04/17 02:30:48;;;;;;;;;;;7.80;63.00;;;;;;2083179;28;19917;-92
2022/04/17 02:32:08;;;;;;;;;;;7.80;63.00;;;;;;2092512;28;20422;-92
2022/04/17 02:33:27;;;;;;;;;;;7.70;63.00;;;;;;2095957;28;19916;-91
2022/04/17 02:34:46;;;;;;;;;;;7.70;63.00;;;;;;2098560;28;19916;-92
2022/04/17 02:36:05;;;;;;;;;;;7.70;63.10;;;;;;2097279;28;19924;-92
2022/04/17 02:37:24;;;;;;;;;;;7.70;63.10;;;;;;2083341;28;19917;-91
2022/04/17 02:38:44;;;;;;;;;;;7.70;63.10;;;;;;2080214;28;20402;-91
2022/04/17 02:40:03;;;;;;;;;;;7.70;63.10;;;;;;2093001;28;19913;-92
2022/04/17 02:41:22;;;;;;;;;;;7.70;63.10;;;;;;2093916;28;19959;-90
2022/04/17 02:42:42;;;;;;;;;;;7.70;63.20;;;;;;2100317;28;19916;-92
2022/04/17 02:44:01;;;;;;;;;;;7.70;63.20;;;;;;2094010;28;19916;-91
2022/04/17 02:45:21;;;;;;;;;;;7.70;63.30;;;;;;2084601;28;20003;-91
2022/04/17 02:48:19;;;;;;;;;;;7.60;63.20;;;;;;2099093;28;19916;-91
2022/04/17 02:49:38;;;;;;;;;;;7.60;63.20;;;;;;2099841;28;19920;-92
2022/04/17 02:50:57;;;;;;;;;;;7.60;63.20;;;;;;2084902;28;20007;-91
2022/04/17 02:52:17;;;;;;;;;;;7.60;63.30;;;;;;2087491;28;19920;-91
2022/04/17 02:53:36;;;;;;;;;;;7.60;63.30;;;;;;2091288;28;19921;-83
2022/04/17 02:54:56;;;;;;;;;;;7.60;63.30;;;;;;2089055;28;19906;-81
2022/04/17 02:56:16;;;;;;;;;;;7.60;63.30;;;;;;2093320;28;19909;-91
2022/04/17 02:57:35;;;;;;;;;;;7.60;63.40;;;;;;2083813;28;19917;-91
2022/04/17 02:58:54;;;;;;;;;;;7.50;63.40;;;;;;2094319;28;19917;-87
2022/04/17 03:00:14;;;;;;;;;;;7.50;63.40;;;;;;2089904;28;19917;-92
2022/04/17 03:06:27;;;;;;;;;;;7.50;63.40;;;;;;2099470;28;19956;-90
2022/04/17 03:07:47;;;;;;;;;;;7.50;63.50;;;;;;2100153;28;19916;-86
2022/04/17 03:09:06;;;;;;;;;;;7.50;63.50;;;;;;2092373;28;19925;-91
2022/04/17 03:10:25;;;;;;;;;;;7.50;63.50;;;;;;2097069;28;20394;-91
2022/04/17 03:11:45;;;;;;;;;;;7.50;63.50;;;;;;2089851;28;19920;-91
2022/04/17 03:13:04;;;;;;;;;;;7.40;63.50;;;;;;2082959;28;19963;-91
2022/04/17 03:14:24;;;;;;;;;;;7.40;63.50;;;;;;2090705;28;20390;-91
2022/04/17 03:15:43;;;;;;;;;;;7.40;63.60;;;;;;2086658;28;19917;-91
2022/04/17 03:17:04;;;;;;;;;;;7.40;63.60;;;;;;2081134;28;19917;-91
2022/04/17 03:18:23;;;;;;;;;;;7.40;63.60;;;;;;2087123;28;19916;-91
2022/04/17 03:19:42;;;;;;;;;;;7.40;63.70;;;;;;2086514;28;19952;-91
2022/04/17 03:21:02;;;;;;;;;;;7.40;63.70;;;;;;2096990;28;19912;-91
2022/04/17 03:22:22;;;;;;;;;;;7.40;63.70;;;;;;2103129;28;19916;-91
2022/04/17 03:23:41;;;;;;;;;;;7.30;63.70;;;;;;2100861;28;19920;-91
2022/04/17 03:25:00;;;;;;;;;;;7.40;63.70;;;;;;2088680;28;19917;-91
2022/04/17 03:26:20;;;;;;;;;;;7.30;63.70;;;;;;2086829;28;19921;-91
2022/04/17 03:27:40;;;;;;;;;;;7.40;63.90;;;;;;2082477;28;20378;-92
2022/04/17 03:28:59;;;;;;;;;;;7.30;63.70;;;;;;2085421;28;19925;-91
2022/04/17 03:30:19;;;;;;;;;;;7.30;63.80;;;;;;2093414;28;19917;-91
2022/04/17 03:31:39;;;;;;;;;;;7.30;63.80;;;;;;2095901;28;19917;-91
2022/04/17 03:32:59;;;;;;;;;;;7.30;63.80;;;;;;2087019;28;19940;-90
2022/04/17 03:34:20;;;;;;;;;;;7.30;63.90;;;;;;2089488;28;21808;-91
2022/04/17 03:35:40;;;;;;;;;;;7.30;63.90;;;;;;2085326;28;19968;-91
2022/04/17 03:36:59;;;;;;;;;;;7.30;63.90;;;;;;2082414;28;19917;-91
2022/04/17 03:38:18;;;;;;;;;;;7.30;63.90;;;;;;2093171;28;20341;-91
2022/04/17 03:39:37;;;;;;;;;;;7.30;63.90;;;;;;2091556;28;19917;-90
2022/04/17 03:40:58;;;;;;;;;;;7.30;64.00;;;;;;2093366;28;19925;-90
2022/04/17 03:42:17;;;;;;;;;;;7.30;64.00;;;;;;2083146;28;19917;-91
2022/04/17 03:43:36;;;;;;;;;;;7.30;64.00;;;;;;2090123;28;19921;-91
2022/04/17 03:44:56;;;;;;;;;;;7.20;64.00;;;;;;2099718;28;19987;-91
2022/04/17 03:46:15;;;;;;;;;;;7.30;64.10;;;;;;2101563;28;19916;-91
2022/04/17 03:47:35;;;;;;;;;;;7.30;64.00;;;;;;2101086;28;19916;-91
2022/04/17 03:48:54;;;;;;;;;;;7.20;64.00;;;;;;2100894;28;19916;-91
2022/04/17 03:50:13;;;;;;;;;;;7.20;64.00;;;;;;2089190;28;19921;-91
2022/04/17 03:51:32;;;;;;;;;;;7.20;64.10;;;;;;2091926;28;19916;-91
2022/04/17 03:52:52;;;;;;;;;;;7.20;64.10;;;;;;2099339;28;19916;-90
2022/04/17 03:54:12;;;;;;;;;;;7.20;64.10;;;;;;2091654;28;19920;-89
2022/04/17 03:55:31;;;;;;;;;;;7.20;64.10;;;;;;2096204;28;20363;-91
2022/04/17 03:56:50;;;;;;;;;;;7.20;64.10;;;;;;2092220;28;19913;-91
2022/04/17 03:58:09;;;;;;;;;;;7.20;64.20;;;;;;2085604;28;19917;-92
2022/04/17 03:59:28;;;;;;;;;;;7.20;64.20;;;;;;2082924;28;20024;-91
2022/04/17 04:00:48;;;;;;;;;;;7.20;64.20;;;;;;2083541;28;19921;-91
2022/04/17 04:02:07;;;;;;;;;;;7.20;64.20;;;;;;2089124;28;19925;-91
2022/04/17 04:03:27;;;;;;;;;;;7.10;64.20;;;;;;2092234;28;21842;-91
2022/04/17 04:04:46;;;;;;;;;;;7.20;64.30;;;;;;2088533;28;20418;-92
2022/04/17 04:06:05;;;;;;;;;;;7.10;64.30;;;;;;2088545;28;20342;-91
2022/04/17 04:07:25;;;;;;;;;;;7.10;64.30;;;;;;2088291;28;19917;-91
2022/04/17 04:08:44;;;;;;;;;;;7.10;64.30;;;;;;2082618;28;20395;-91
2022/04/17 04:10:05;;;;;;;;;;;7.10;64.30;;;;;;2089619;28;19924;-91
2022/04/17 04:11:25;;;;;;;;;;;7.10;64.40;;;;;;2096225;28;19934;-91
2022/04/17 04:12:44;;;;;;;;;;;7.10;64.40;;;;;;2091511;28;19916;-91
2022/04/17 04:14:04;;;;;;;;;;;7.10;64.50;;;;;;2082445;28;19917;-91
2022/04/17 04:15:23;;;;;;;;;;;7.10;64.50;;;;;;2088857;28;19909;-91
2022/04/17 04:16:43;;;;;;;;;;;7.00;64.50;;;;;;2100220;28;19916;-91
2022/04/17 04:18:02;;;;;;;;;;;7.00;64.50;;;;;;2098759;28;19916;-91
2022/04/17 04:19:22;;;;;;;;;;;7.00;64.50;;;;;;2101727;28;19916;-91
2022/04/17 04:20:41;;;;;;;;;;;7.10;64.60;;;;;;2097692;28;19916;-91
2022/04/17 04:22:01;;;;;;;;;;;7.00;64.50;;;;;;2087626;28;19916;-91
2022/04/17 04:23:21;;;;;;;;;;;7.00;64.60;;;;;;2086216;28;19917;-91
2022/04/17 04:24:40;;;;;;;;;;;7.00;64.50;;;;;;2084364;28;19960;-92
2022/04/17 04:26:00;;;;;;;;;;;7.00;64.60;;;;;;2082786;28;19917;-91
2022/04/17 04:28:58;;;;;;;;;;;7.00;64.60;;;;;;2094806;28;19939;-91
2022/04/17 04:30:18;;;;;;;;;;;7.00;64.50;;;;;;2087883;28;19920;-91
2022/04/17 04:31:37;;;;;;;;;;;7.00;64.50;;;;;;2077751;28;19973;-92
2022/04/17 04:32:57;;;;;;;;;;;7.00;64.60;;;;;;2094795;28;19924;-91
2022/04/17 04:34:16;;;;;;;;;;;7.00;64.60;;;;;;2101283;28;19916;-91
2022/04/17 04:35:35;;;;;;;;;;;7.00;64.70;;;;;;2091774;28;19925;-91
2022/04/17 04:36:54;;;;;;;;;;;7.00;64.70;;;;;;2093300;28;19924;-91
2022/04/17 04:38:13;;;;;;;;;;;7.00;64.70;;;;;;2101614;28;19912;-91
2022/04/17 04:39:33;;;;;;;;;;;7.00;64.70;;;;;;2101056;28;19912;-91
2022/04/17 04:40:52;;;;;;;;;;;6.90;64.70;;;;;;2093755;28;19916;-91
2022/04/17 04:42:12;;;;;;;;;;;6.90;64.70;;;;;;2093196;28;19917;-91
2022/04/17 04:43:31;;;;;;;;;;;6.90;64.70;;;;;;2097954;28;19916;-91
2022/04/17 04:46:06;;;;;;;;;;;6.90;64.70;;;;;;2102069;28;19917;-84
2022/04/17 04:46:30;;;;;;;;;;;6.90;64.70;;;;;;2108659;28;19904;-91
2022/04/17 04:47:50;;;;;;;;;;;6.90;64.80;;;;;;2101412;28;19917;-91
2022/04/17 04:50:48;;;;;;;;;;;6.90;64.80;;;;;;2098401;28;19956;-91
2022/04/17 04:52:07;;;;;;;;;;;6.90;64.80;;;;;;2086217;28;19924;-91
2022/04/17 04:53:26;;;;;;;;;;;6.90;64.80;;;;;;2094181;28;20316;-91
2022/04/17 04:54:46;;;;;;;;;;;6.90;64.80;;;;;;2096826;28;20144;-91
2022/04/17 04:56:06;;;;;;;;;;;6.90;64.80;;;;;;2105275;28;19916;-91
2022/04/17 04:57:25;;;;;;;;;;;6.90;64.80;;;;;;2105470;28;19905;-86
2022/04/17 04:58:44;;;;;;;;;;;6.90;64.80;;;;;;2101933;28;19917;-91
2022/04/17 05:00:05;;;;;;;;;;;6.90;64.80;;;;;;2100810;28;20313;-91
2022/04/17 05:01:24;;;;;;;;;;;6.90;64.80;;;;;;2095805;28;19913;-91
2022/04/17 05:02:44;;;;;;;;;;;6.90;64.80;;;;;;2092350;28;19917;-91
2022/04/17 05:04:03;;;;;;;;;;;6.90;64.90;;;;;;2088659;28;20011;-91
2022/04/17 05:05:24;;;;;;;;;;;6.80;64.80;;;;;;2082884;28;19913;-91
2022/04/17 05:06:43;;;;;;;;;;;6.80;64.80;;;;;;2077823;28;20845;-90
2022/04/17 05:08:03;;;;;;;;;;;6.90;64.90;;;;;;2096636;28;20327;-91
2022/04/17 05:09:22;;;;;;;;;;;6.90;64.90;;;;;;2092028;28;19925;-91
2022/04/17 05:10:41;;;;;;;;;;;6.90;64.90;;;;;;2093746;28;19948;-91
2022/04/17 05:12:00;;;;;;;;;;;6.90;64.90;;;;;;2091454;28;19917;-92
2022/04/17 05:13:19;;;;;;;;;;;6.90;64.90;;;;;;2087622;28;20318;-91
2022/04/17 05:14:41;;;;;;;;;;;6.90;64.90;;;;;;2098197;28;19912;-91
2022/04/17 05:16:01;;;;;;;;;;;6.90;64.90;;;;;;2095469;28;19944;-91
2022/04/17 05:17:20;;;;;;;;;;;7.00;65.00;;;;;;2093310;28;19917;-92
2022/04/17 05:18:39;;;;;;;;;;;7.00;65.00;;;;;;2094512;28;19916;-92
2022/04/17 05:19:59;;;;;;;;;;;7.00;65.00;;;;;;2093309;28;19913;-91
2022/04/17 05:21:21;;;;;;;;;;;7.00;65.00;;;;;;2098975;28;19986;-91
2022/04/17 05:22:41;;;;;;;;;;;7.00;65.00;;;;;;2091147;28;19975;-91
2022/04/17 05:24:00;;;;;;;;;;;7.00;65.00;;;;;;2091653;28;19932;-92
2022/04/17 05:25:19;;;;;;;;;;;7.00;65.00;;;;;;2098479;28;19916;-91
2022/04/17 05:26:38;;;;;;;;;;;7.00;64.90;;;;;;2090281;28;19925;-91
2022/04/17 05:27:57;;;;;;;;;;;7.00;64.90;;;;;;2098568;28;19916;-91
2022/04/17 05:29:17;;;;;;;;;;;7.10;65.00;;;;;;2095860;28;19924;-91
2022/04/17 05:30:36;;;;;;;;;;;7.10;64.90;;;;;;2100288;28;19913;-91
2022/04/17 05:31:55;;;;;;;;;;;7.10;64.90;;;;;;2099959;28;19916;-91
2022/04/17 05:33:21;;;;;;;;;;;7.10;64.90;;;;;;2094914;28;19920;-92
2022/04/17 05:34:40;;;;;;;;;;;7.20;64.90;;;;;;2085425;28;20386;-91
2022/04/17 05:35:59;;;;;;;;;;;7.20;64.90;;;;;;2093659;28;19925;-91
2022/04/17 05:37:18;;;;;;;;;;;7.20;64.80;;;;;;2091430;28;19924;-91
2022/04/17 05:38:37;;;;;;;;;;;7.20;64.80;;;;;;2087189;28;19913;-91
2022/04/17 05:39:57;;;;;;;;;;;7.30;64.80;;;;;;2095730;28;19972;-91
2022/04/17 05:41:16;;;;;;;;;;;7.30;64.70;;;;;;2100976;28;19995;-91
2022/04/17 05:42:35;;;;;;;;;;;7.40;64.80;;;;;;2092422;28;19956;-91
2022/04/17 05:43:56;;;;;;;;;;;7.40;64.60;;;;;;2085245;28;19920;-92
2022/04/17 05:45:15;;;;;;;;;;;7.40;64.50;;;;;;2095582;28;19912;-91
2022/04/17 05:46:36;;;;;;;;;;;7.50;64.50;;;;;;2093304;28;19925;-91
2022/04/17 05:47:56;;;;;;;;;;;7.60;64.40;;;;;;2098528;28;19916;-91
2022/04/17 05:49:15;;;;;;;;;;;7.60;64.40;;;;;;2093886;28;19920;-91
2022/04/17 05:50:35;;;;;;;;;;;7.60;64.30;;;;;;2102373;28;19916;-90
2022/04/17 05:51:56;;;;;;;;;;;7.60;64.20;;;;;;2100321;28;20355;-90
2022/04/17 05:53:17;;;;;;;;;;;7.70;64.20;;;;;;2100101;28;19916;-91
2022/04/17 05:54:36;;;;;;;;;;;7.70;64.10;;;;;;2097340;28;19916;-91
2022/04/17 05:55:55;;;;;;;;;;;7.80;64.10;;;;;;2102573;28;19912;-91
2022/04/17 05:57:14;;;;;;;;;;;7.80;64.00;;;;;;2105934;28;19912;-91
2022/04/17 05:58:34;;;;;;;;;;;7.90;63.90;;;;;;2101469;28;19924;-91
2022/04/17 05:59:53;;;;;;;;;;;7.90;63.90;;;;;;2097744;28;19920;-91
2022/04/17 06:01:12;;;;;;;;;;;7.90;63.70;;;;;;2100455;28;19959;-91
2022/04/17 06:02:31;;;;;;;;;;;8.00;63.70;;;;;;2101008;28;19920;-91
2022/04/17 06:03:50;;;;;;;;;;;8.00;63.70;;;;;;2088672;28;19917;-91
2022/04/17 06:05:10;;;;;;;;;;;8.00;63.60;;;;;;2092951;28;19917;-90
2022/04/17 06:06:29;;;;;;;;;;;8.00;63.60;;;;;;2095221;28;19916;-91
2022/04/17 06:07:48;;;;;;;;;;;8.10;63.60;;;;;;2086661;28;19924;-91
2022/04/17 06:09:07;;;;;;;;;;;8.10;63.50;;;;;;2092186;28;19916;-90
2022/04/17 06:10:27;;;;;;;;;;;8.10;63.50;;;;;;2095832;28;20019;-91
2022/04/17 06:11:46;;;;;;;;;;;8.20;63.60;;;;;;2086518;28;19917;-91
2022/04/17 06:13:05;;;;;;;;;;;8.20;63.50;;;;;;2087831;28;19917;-91
2022/04/17 06:14:24;;;;;;;;;;;8.20;63.50;;;;;;2085953;28;20338;-92
2022/04/17 06:15:44;;;;;;;;;;;8.20;63.40;;;;;;2091613;28;19916;-92
2022/04/17 06:17:03;;;;;;;;;;;8.30;63.50;;;;;;2092770;28;19962;-90
2022/04/17 06:18:22;;;;;;;;;;;8.30;63.40;;;;;;2086909;28;19920;-90
2022/04/17 06:19:43;;;;;;;;;;;8.30;63.30;;;;;;2080981;28;19964;-89
2022/04/17 06:21:02;;;;;;;;;;;8.30;63.40;;;;;;2082776;28;20039;-90
2022/04/17 06:22:21;;;;;;;;;;;8.30;63.40;;;;;;2095891;28;19920;-91
2022/04/17 06:23:41;;;;;;;;;;;8.30;63.10;;;;;;2105789;28;19916;-90
2022/04/17 06:25:01;;;;;;;;;;;8.30;63.10;;;;;;2098805;28;19912;-90
2022/04/17 06:26:20;;;;;;;;;;;8.30;63.10;;;;;;2100376;28;19920;-91
2022/04/17 06:27:43;;;;;;;;;;;8.30;63.20;;;;;;2107176;28;19917;-86
2022/04/17 06:29:05;;;;;;;;;;;8.30;63.00;;;;;;2104337;28;20007;-91
2022/04/17 06:30:24;;;;;;;;;;;8.30;63.10;;;;;;2101525;28;19912;-91
2022/04/17 06:31:45;;;;;;;;;;;8.30;63.10;;;;;;2102897;28;19920;-91
2022/04/17 06:33:04;;;;;;;;;;;8.30;63.10;;;;;;2102345;28;19916;-91
2022/04/17 06:34:23;;;;;;;;;;;8.40;63.20;;;;;;2103640;28;19916;-85
2022/04/17 06:35:43;;;;;;;;;;;8.40;63.20;;;;;;2103449;28;19913;-85
2022/04/17 06:37:02;;;;;;;;;;;8.40;63.20;;;;;;2097868;28;19917;-91
2022/04/17 06:38:23;;;;;;;;;;;8.40;63.20;;;;;;2094513;28;19924;-90
2022/04/17 06:39:43;;;;;;;;;;;8.50;63.20;;;;;;2097984;28;19925;-89
2022/04/17 06:41:02;;;;;;;;;;;8.50;63.10;;;;;;2099568;28;19917;-91
2022/04/17 06:42:21;;;;;;;;;;;8.50;63.10;;;;;;2092255;28;20012;-90
2022/04/17 06:43:40;;;;;;;;;;;8.50;63.10;;;;;;2095648;28;19912;-91
2022/04/17 06:44:59;;;;;;;;;;;8.60;63.10;;;;;;2097544;28;19912;-91
2022/04/17 06:46:19;;;;;;;;;;;8.50;63.00;;;;;;2105919;28;19925;-90
2022/04/17 06:47:38;;;;;;;;;;;8.50;62.90;;;;;;2096555;28;19917;-90
2022/04/17 06:48:57;;;;;;;;;;;8.60;62.90;;;;;;2100177;28;19921;-87
2022/04/17 06:50:18;;;;;;;;;;;8.60;63.10;;;;;;2103118;28;19908;-91
2022/04/17 06:51:38;;;;;;;;;;;8.60;63.20;;;;;;2098594;28;19917;-91
2022/04/17 06:53:00;;;;;;;;;;;8.60;63.20;;;;;;2100874;28;19960;-92
2022/04/17 06:54:19;;;;;;;;;;;8.60;63.20;;;;;;2096035;28;19917;-91
2022/04/17 06:55:39;;;;;;;;;;;8.70;63.10;;;;;;2088842;28;19921;-90
2022/04/17 06:56:57;;;;;;;;;;;8.70;63.20;;;;;;2093437;28;21803;-92
2022/04/17 06:58:18;;;;;;;;;;;8.70;63.10;;;;;;2094865;28;19917;-91
2022/04/17 06:59:37;;;;;;;;;;;8.80;62.80;;;;;;2095024;28;19925;-92
2022/04/17 07:00:56;;;;;;;;;;;8.80;62.60;;;;;;2094873;28;19917;-91
2022/04/17 07:02:15;;;;;;;;;;;8.80;62.80;;;;;;2099352;28;19920;-92
2022/04/17 07:03:34;;;;;;;;;;;8.80;62.90;;;;;;2091063;28;19988;-93
2022/04/17 07:04:53;;;;;;;;;;;8.80;63.00;;;;;;2082211;28;20656;-92
2022/04/17 07:06:13;;;;;;;;;;;8.80;63.00;;;;;;2090895;28;19917;-92
2022/04/17 07:07:32;;;;;;;;;;;8.80;63.00;;;;;;2094742;28;20599;-91
2022/04/17 07:08:51;;;;;;;;;;;8.80;62.70;;;;;;2098070;28;20011;-90
2022/04/17 07:10:11;;;;;;;;;;;8.90;63.00;;;;;;2097759;28;19924;-91
2022/04/17 07:11:30;;;;;;;;;;;8.90;63.00;;;;;;2094754;28;19909;-91
2022/04/17 07:12:51;;;;;;;;;;;8.90;62.80;;;;;;2086235;28;19949;-91
2022/04/17 07:14:14;;;;;;;;;;;9.00;63.00;;;;;;2088696;28;19913;-92
2022/04/17 07:15:34;;;;;;;;;;;9.00;62.90;;;;;;2088424;28;20302;-93
2022/04/17 07:16:53;;;;;;;;;;;9.00;62.90;;;;;;2093877;28;19917;-94
2022/04/17 07:18:12;;;;;;;;;;;9.10;62.90;;;;;;2094794;28;19912;-94
2022/04/17 07:19:32;;;;;;;;;;;9.10;62.90;;;;;;2085382;28;19921;-91
2022/04/17 07:20:51;;;;;;;;;;;9.10;62.90;;;;;;2090679;28;19917;-91
2022/04/17 07:22:13;;;;;;;;;;;9.20;62.90;;;;;;2085444;28;20365;-92
2022/04/17 07:23:33;;;;;;;;;;;9.30;62.90;;;;;;2089624;28;20378;-91
2022/04/17 07:24:54;;;;;;;;;;;9.40;62.90;;;;;;2087991;28;20838;-92
2022/04/17 07:26:13;;;;;;;;;;;9.30;62.70;;;;;;2083113;28;19917;-92
2022/04/17 07:27:36;;;;;;;;;;;9.40;62.80;;;;;;2082514;28;19918;-91
2022/04/17 07:28:56;;;;;;;;;;;9.40;62.70;;;;;;2093728;28;19912;-90
2022/04/17 07:30:19;;;;;;;;;;;9.50;62.80;;;;;;2092377;28;19955;-91
2022/04/17 07:31:38;;;;;;;;;;;9.60;62.50;;;;;;2090866;28;19913;-92
2022/04/17 07:32:58;;;;;;;;;;;9.60;62.50;;;;;;2087820;28;19964;-91
2022/04/17 07:34:18;;;;;;;;;;;9.60;62.50;;;;;;2097818;28;20370;-92
2022/04/17 07:35:37;;;;;;;;;;;9.70;62.30;;;;;;2093795;28;19929;-92
2022/04/17 07:36:56;;;;;;;;;;;9.70;62.30;;;;;;2093537;28;19921;-93
2022/04/17 07:38:16;;;;;;;;;;;9.70;62.10;;;;;;2084358;28;20204;-91
2022/04/17 07:39:35;;;;;;;;;;;9.80;62.20;;;;;;2088668;28;19917;-90
2022/04/17 07:40:54;;;;;;;;;;;9.80;62.30;;;;;;2089226;28;19921;-92
2022/04/17 07:42:19;;;;;;;;;;;9.90;62.10;;;;;;2083486;28;19916;-91
2022/04/17 07:43:38;;;;;;;;;;;9.90;62.20;;;;;;2084505;28;19917;-93
2022/04/17 07:44:57;;;;;;;;;;;10.00;62.20;;;;;;2088522;28;19956;-91
2022/04/17 07:46:17;;;;;;;;;;;10.00;62.10;;;;;;2094184;28;19920;-90
2022/04/17 07:47:36;;;;;;;;;;;10.10;62.10;;;;;;2095771;28;19917;-91
2022/04/17 07:48:55;;;;;;;;;;;10.20;62.10;;;;;;2084620;28;19969;-92
2022/04/17 07:50:17;;;;;;;;;;;10.20;61.90;;;;;;2089382;28;19928;-91
2022/04/17 07:51:36;;;;;;;;;;;10.30;61.90;;;;;;2106199;28;19959;-92
2022/04/17 07:52:55;;;;;;;;;;;10.40;61.70;;;;;;2102836;28;19920;-92
2022/04/17 07:54:14;;;;;;;;;;;10.50;61.70;;;;;;2095884;28;20394;-92
2022/04/17 07:55:34;;;;;;;;;;;10.60;61.70;;;;;;2089345;28;19925;-92
2022/04/17 07:56:53;;;;;;;;;;;10.60;61.60;;;;;;2091142;28;20347;-92
2022/04/17 07:58:16;;;;;;;;;;;10.70;61.50;;;;;;2101999;28;20000;-93
2022/04/17 07:59:35;;;;;;;;;;;10.80;61.30;;;;;;2097872;28;20390;-93
2022/04/17 08:00:57;;;;;;;;;;;10.80;61.40;;;;;;2094194;28;20275;-92
2022/04/17 08:02:22;;;;;;;;;;;10.90;61.10;;;;;;2095559;28;19925;-94